Time;durP1;ratioP1;P1;durP2;ratioP2;P2;SDS_P1;SDS_P2;PMS_P1;PMS_P2;Temp;Humidity;BMP_temperature;BMP_pressure;BME280_temperature;BME280_humidity;BME280_pressure;Samples;Min_cycle;Max_cycle;Signal;HPM_P1;HPM_P2
2023/06/13 00:01:57;;;;;;;;;;;17.40;84.70;;;;;;5089525;28;19933;-83
2023/06/13 00:04:23;;;;;;;;;;;17.40;85.60;;;;;;5083538;28;19931;-83
2023/06/13 00:06:54;;;;;;;;;;;17.30;85.00;;;;;;5086715;28;19935;-83
2023/06/13 00:09:23;;;;;;;;;;;17.30;85.10;;;;;;5079576;28;19951;-82
2023/06/13 00:11:52;;;;;;;;;;;17.30;86.00;;;;;;5088190;28;20395;-83
2023/06/13 00:14:18;;;;;;;;;;;17.30;87.10;;;;;;5094503;28;19923;-83
2023/06/13 00:16:44;;;;;;;;;;;17.20;87.40;;;;;;5094214;28;19935;-83
2023/06/13 00:19:11;;;;;;;;;;;17.10;86.60;;;;;;5090068;28;19929;-84
2023/06/13 00:21:38;;;;;;;;;;;17.10;86.60;;;;;;5096007;28;19931;-83
2023/06/13 00:24:04;;;;;;;;;;;17.10;87.80;;;;;;5093839;28;19978;-83
2023/06/13 00:26:29;;;;;;;;;;;17.10;89.00;;;;;;5093807;28;19955;-82
2023/06/13 00:28:55;;;;;;;;;;;17.00;87.70;;;;;;5087364;28;19928;-83
2023/06/13 00:31:20;;;;;;;;;;;16.90;86.40;;;;;;5086635;28;20357;-83
2023/06/13 00:33:50;;;;;;;;;;;16.80;88.30;;;;;;5100161;28;20312;-83
2023/06/13 00:36:20;;;;;;;;;;;16.70;89.10;;;;;;5092249;28;19936;-82
2023/06/13 00:38:47;;;;;;;;;;;16.70;88.20;;;;;;5099573;28;19935;-83
2023/06/13 00:41:13;;;;;;;;;;;16.70;89.10;;;;;;5096214;28;19927;-83
2023/06/13 00:43:39;;;;;;;;;;;16.60;89.10;;;;;;5093895;28;19939;-83
2023/06/13 00:46:05;;;;;;;;;;;16.60;88.00;;;;;;5093226;28;19928;-83
2023/06/13 00:48:31;;;;;;;;;;;16.60;88.20;;;;;;5100564;28;19950;-83
2023/06/13 00:50:57;;;;;;;;;;;16.40;89.00;;;;;;5098756;28;19935;-82
2023/06/13 00:53:23;;;;;;;;;;;16.40;90.10;;;;;;5098227;28;19932;-83
2023/06/13 00:55:50;;;;;;;;;;;16.60;87.20;;;;;;5095272;28;20377;-82
2023/06/13 00:58:15;;;;;;;;;;;16.70;84.30;;;;;;5095919;28;19927;-83
2023/06/13 01:00:43;;;;;;;;;;;16.70;87.20;;;;;;5071528;28;20443;-84
2023/06/13 01:03:15;;;;;;;;;;;16.80;84.40;;;;;;5098032;28;20026;-83
2023/06/13 01:05:44;;;;;;;;;;;17.10;82.20;;;;;;5079012;28;20570;-83
2023/06/13 01:08:12;;;;;;;;;;;16.90;85.80;;;;;;5094631;28;19923;-83
2023/06/13 01:10:40;;;;;;;;;;;16.90;83.40;;;;;;5092551;28;20304;-83
2023/06/13 01:13:14;;;;;;;;;;;16.90;82.90;;;;;;5092754;28;19928;-83
2023/06/13 01:15:44;;;;;;;;;;;17.10;82.10;;;;;;5095815;28;20015;-83
2023/06/13 01:18:10;;;;;;;;;;;17.00;82.90;;;;;;5099979;28;20300;-84
2023/06/13 01:20:36;;;;;;;;;;;17.00;82.60;;;;;;5094374;28;21873;-83
2023/06/13 01:23:21;;;;;;;;;;;17.10;83.70;;;;;;5099619;28;20026;-83
2023/06/13 01:26:02;;;;;;;;;;;17.00;83.40;;;;;;5096708;28;19928;-84
2023/06/13 01:28:32;;;;;;;;;;;17.10;82.90;;;;;;5094999;28;19924;-83
2023/06/13 01:30:58;;;;;;;;;;;17.10;82.70;;;;;;5095808;28;19930;-83
2023/06/13 01:33:24;;;;;;;;;;;17.10;81.60;;;;;;5095843;28;20338;-84
2023/06/13 01:35:50;;;;;;;;;;;17.10;82.30;;;;;;5094918;28;19932;-83
2023/06/13 01:38:16;;;;;;;;;;;17.20;82.00;;;;;;5101049;28;20024;-83
2023/06/13 01:40:42;;;;;;;;;;;17.10;82.10;;;;;;5091936;28;19935;-83
2023/06/13 01:43:07;;;;;;;;;;;17.10;82.80;;;;;;5079996;28;19928;-83
2023/06/13 01:45:33;;;;;;;;;;;17.10;82.40;;;;;;5096370;28;19934;-83
2023/06/13 01:48:04;;;;;;;;;;;17.00;83.10;;;;;;5075202;28;19934;-83
2023/06/13 01:50:36;;;;;;;;;;;17.00;83.90;;;;;;5086679;28;19928;-80
2023/06/13 01:53:06;;;;;;;;;;;17.00;83.30;;;;;;5084533;28;19938;-84
2023/06/13 01:55:35;;;;;;;;;;;17.10;83.10;;;;;;5090597;28;19931;-83
2023/06/13 01:58:10;;;;;;;;;;;17.10;82.30;;;;;;5092054;28;20603;-83
2023/06/13 02:00:38;;;;;;;;;;;16.90;84.30;;;;;;5094834;28;19928;-82
2023/06/13 02:03:04;;;;;;;;;;;16.90;84.30;;;;;;5091065;28;20403;-82
2023/06/13 02:05:30;;;;;;;;;;;16.90;84.60;;;;;;5094720;28;19981;-83
2023/06/13 02:07:56;;;;;;;;;;;17.00;83.70;;;;;;5094651;28;19932;-82
2023/06/13 02:10:22;;;;;;;;;;;16.90;84.20;;;;;;5091280;28;19924;-83
2023/06/13 02:12:48;;;;;;;;;;;16.90;84.70;;;;;;5089765;28;20304;-83
2023/06/13 02:15:14;;;;;;;;;;;16.80;84.80;;;;;;5095979;28;19959;-83
2023/06/13 02:17:40;;;;;;;;;;;16.80;84.80;;;;;;5092600;28;19928;-83
2023/06/13 02:20:06;;;;;;;;;;;16.80;85.10;;;;;;5097572;28;19924;-84
2023/06/13 02:22:32;;;;;;;;;;;16.70;85.70;;;;;;5098837;28;19976;-83
2023/06/13 02:24:59;;;;;;;;;;;16.60;85.80;;;;;;5093871;28;19931;-83
2023/06/13 02:27:25;;;;;;;;;;;16.60;86.30;;;;;;5095820;28;20376;-82
2023/06/13 02:29:51;;;;;;;;;;;16.70;85.70;;;;;;5091249;28;19928;-84
2023/06/13 02:32:18;;;;;;;;;;;16.70;85.70;;;;;;5076650;28;20557;-83
2023/06/13 02:34:44;;;;;;;;;;;16.70;85.90;;;;;;5095496;28;20269;-83
2023/06/13 02:37:10;;;;;;;;;;;16.50;87.10;;;;;;5097744;28;19924;-82
2023/06/13 02:39:35;;;;;;;;;;;16.40;87.20;;;;;;5097321;28;19928;-82
2023/06/13 02:42:01;;;;;;;;;;;16.50;87.10;;;;;;5088612;28;19963;-83
2023/06/13 02:44:26;;;;;;;;;;;16.40;87.50;;;;;;5095368;28;19978;-83
2023/06/13 02:46:52;;;;;;;;;;;16.50;87.10;;;;;;5092379;28;19928;-83
2023/06/13 02:49:18;;;;;;;;;;;16.30;87.50;;;;;;5095944;28;19927;-82
2023/06/13 02:51:43;;;;;;;;;;;16.40;87.30;;;;;;5093994;28;19927;-83
2023/06/13 02:54:09;;;;;;;;;;;16.30;88.10;;;;;;5091200;28;19992;-82
2023/06/13 02:56:36;;;;;;;;;;;16.30;88.40;;;;;;5094911;28;19950;-82
2023/06/13 02:59:02;;;;;;;;;;;16.30;88.50;;;;;;5097389;28;19928;-83
2023/06/13 03:01:29;;;;;;;;;;;16.30;88.20;;;;;;5096249;28;19935;-82
2023/06/13 03:03:54;;;;;;;;;;;16.20;88.70;;;;;;5091414;28;20020;-83
2023/06/13 03:06:20;;;;;;;;;;;16.10;89.90;;;;;;5093600;28;20007;-82
2023/06/13 03:08:46;;;;;;;;;;;16.20;89.00;;;;;;5095533;28;19934;-83
2023/06/13 03:11:12;;;;;;;;;;;16.10;89.60;;;;;;5095797;28;19935;-83
2023/06/13 03:13:38;;;;;;;;;;;16.10;90.40;;;;;;5089252;28;19985;-84
2023/06/13 03:16:04;;;;;;;;;;;16.10;90.00;;;;;;5096884;28;20038;-83
2023/06/13 03:18:30;;;;;;;;;;;16.10;89.90;;;;;;5093345;28;20328;-83
2023/06/13 03:20:56;;;;;;;;;;;16.00;90.50;;;;;;5094601;28;20009;-83
2023/06/13 03:23:21;;;;;;;;;;;16.00;90.60;;;;;;5097911;28;19960;-82
2023/06/13 03:25:47;;;;;;;;;;;15.90;90.60;;;;;;5096888;28;19959;-83
2023/06/13 03:28:12;;;;;;;;;;;15.80;91.40;;;;;;5095689;28;20346;-83
2023/06/13 03:30:38;;;;;;;;;;;15.80;91.10;;;;;;5094218;28;19927;-82
2023/06/13 03:33:04;;;;;;;;;;;15.70;92.60;;;;;;5097232;28;19998;-83
2023/06/13 03:35:29;;;;;;;;;;;15.60;93.80;;;;;;5093487;28;19954;-82
2023/06/13 03:37:55;;;;;;;;;;;15.60;93.10;;;;;;5099138;28;19924;-83
2023/06/13 03:40:21;;;;;;;;;;;15.50;93.90;;;;;;5096452;28;20020;-83
2023/06/13 03:42:46;;;;;;;;;;;15.60;93.20;;;;;;5091668;28;20016;-83
2023/06/13 03:45:15;;;;;;;;;;;15.60;93.80;;;;;;5093737;28;19980;-82
2023/06/13 03:47:41;;;;;;;;;;;15.50;93.50;;;;;;5092957;28;19977;-82
2023/06/13 03:50:07;;;;;;;;;;;15.40;94.60;;;;;;5099114;28;20325;-83
2023/06/13 03:52:32;;;;;;;;;;;15.40;95.60;;;;;;5092933;28;19928;-83
2023/06/13 03:54:58;;;;;;;;;;;15.40;96.00;;;;;;5092911;28;19931;-82
2023/06/13 03:57:23;;;;;;;;;;;15.40;96.70;;;;;;5093099;28;20351;-83
2023/06/13 03:59:49;;;;;;;;;;;15.20;97.10;;;;;;5092795;28;20357;-82
2023/06/13 04:02:15;;;;;;;;;;;15.30;97.50;;;;;;5090794;28;20387;-82
2023/06/13 04:04:46;;;;;;;;;;;15.20;97.70;;;;;;5084874;28;20430;-82
2023/06/13 04:07:12;;;;;;;;;;;15.20;98.20;;;;;;5098887;28;19957;-83
2023/06/13 04:09:37;;;;;;;;;;;15.00;99.20;;;;;;5092504;28;20480;-82
2023/06/13 04:12:03;;;;;;;;;;;15.00;99.10;;;;;;5093406;28;19966;-82
2023/06/13 04:14:29;;;;;;;;;;;15.20;99.90;;;;;;5100438;28;19944;-83
2023/06/13 04:16:57;;;;;;;;;;;15.20;99.00;;;;;;5089864;28;19935;-83
2023/06/13 04:19:23;;;;;;;;;;;15.20;99.40;;;;;;5097533;28;19928;-83
2023/06/13 04:21:51;;;;;;;;;;;15.20;99.90;;;;;;5089312;28;19928;-83
2023/06/13 04:24:17;;;;;;;;;;;15.20;99.90;;;;;;5096058;28;19931;-83
2023/06/13 04:26:45;;;;;;;;;;;15.20;99.90;;;;;;5100944;28;19927;-83
2023/06/13 04:29:13;;;;;;;;;;;15.30;99.90;;;;;;5095666;28;19923;-83
2023/06/13 04:31:39;;;;;;;;;;;15.50;99.80;;;;;;5077456;28;20711;-82
2023/06/13 04:34:07;;;;;;;;;;;15.30;99.90;;;;;;5094602;28;19936;-81
2023/06/13 04:36:33;;;;;;;;;;;15.40;99.90;;;;;;5092357;28;19971;-82
2023/06/13 04:39:04;;;;;;;;;;;15.60;99.90;;;;;;5090803;28;20282;-82
2023/06/13 04:41:34;;;;;;;;;;;16.00;99.90;;;;;;5088198;28;19932;-83
2023/06/13 04:44:09;;;;;;;;;;;18.10;96.30;;;;;;5075427;28;19935;-83
2023/06/13 04:46:35;;;;;;;;;;;19.20;95.20;;;;;;5085000;28;19928;-83
2023/06/13 04:49:04;;;;;;;;;;;19.50;93.20;;;;;;5090482;28;20397;-83
2023/06/13 04:51:32;;;;;;;;;;;21.00;91.70;;;;;;5091246;28;19928;-83
2023/06/13 04:53:58;;;;;;;;;;;20.90;87.40;;;;;;5093373;28;19986;-83
2023/06/13 04:56:25;;;;;;;;;;;20.90;84.60;;;;;;5092939;28;19931;-83
2023/06/13 04:58:52;;;;;;;;;;;22.10;86.30;;;;;;5092905;28;19924;-83
2023/06/13 05:01:19;;;;;;;;;;;23.20;86.70;;;;;;5088886;28;19928;-84
2023/06/13 05:03:45;;;;;;;;;;;24.00;85.10;;;;;;5100308;28;20304;-84
2023/06/13 05:06:12;;;;;;;;;;;24.70;83.20;;;;;;5075220;28;19924;-84
2023/06/13 05:08:37;;;;;;;;;;;24.50;80.20;;;;;;5095897;28;20012;-84
2023/06/13 05:11:03;;;;;;;;;;;25.10;80.90;;;;;;5086601;28;20619;-84
2023/06/13 05:13:29;;;;;;;;;;;24.30;78.10;;;;;;5093194;28;19924;-84
2023/06/13 05:15:55;;;;;;;;;;;24.80;76.10;;;;;;5093753;28;20630;-84
2023/06/13 05:18:24;;;;;;;;;;;24.50;75.60;;;;;;5090517;28;19932;-85
2023/06/13 05:20:50;;;;;;;;;;;25.60;78.50;;;;;;5098037;28;19928;-84
2023/06/13 05:23:16;;;;;;;;;;;25.30;76.50;;;;;;5093219;28;19934;-84
2023/06/13 05:25:41;;;;;;;;;;;26.50;78.00;;;;;;5095670;28;19932;-84
2023/06/13 05:28:07;;;;;;;;;;;26.20;75.80;;;;;;5082373;28;19932;-84
2023/06/13 05:30:33;;;;;;;;;;;24.70;72.50;;;;;;5093644;28;19977;-84
2023/06/13 05:32:59;;;;;;;;;;;26.30;75.60;;;;;;5096831;28;19947;-84
2023/06/13 05:35:25;;;;;;;;;;;26.00;76.00;;;;;;5096466;28;19928;-84
2023/06/13 05:37:51;;;;;;;;;;;24.80;74.40;;;;;;5097385;28;19950;-84
2023/06/13 05:40:16;;;;;;;;;;;24.80;73.90;;;;;;5097023;28;19928;-84
2023/06/13 05:42:42;;;;;;;;;;;24.70;77.30;;;;;;5094557;28;19932;-85
2023/06/13 05:45:08;;;;;;;;;;;23.20;76.10;;;;;;5095341;28;20444;-85
2023/06/13 05:47:34;;;;;;;;;;;22.40;78.50;;;;;;5092631;28;20015;-83
2023/06/13 05:50:00;;;;;;;;;;;21.50;78.50;;;;;;5096468;28;20015;-83
2023/06/13 05:52:26;;;;;;;;;;;21.60;82.30;;;;;;5097627;28;19931;-83
2023/06/13 05:54:52;;;;;;;;;;;20.60;80.40;;;;;;5092912;28;19949;-84
2023/06/13 05:57:17;;;;;;;;;;;21.20;83.00;;;;;;5093856;28;19935;-83
2023/06/13 05:59:43;;;;;;;;;;;21.20;83.00;;;;;;5087294;28;20305;-86
2023/06/13 06:02:09;;;;;;;;;;;21.30;83.20;;;;;;5094742;28;20356;-85
2023/06/13 06:04:35;;;;;;;;;;;21.40;83.50;;;;;;5091616;28;19962;-84
2023/06/13 06:07:01;;;;;;;;;;;21.60;82.70;;;;;;5094710;28;20459;-84
2023/06/13 06:09:26;;;;;;;;;;;21.90;83.60;;;;;;5091853;28;20344;-83
2023/06/13 06:11:52;;;;;;;;;;;21.20;83.20;;;;;;5091219;28;20424;-84
2023/06/13 06:14:18;;;;;;;;;;;20.90;82.10;;;;;;5097564;28;19970;-83
2023/06/13 06:16:43;;;;;;;;;;;21.10;82.40;;;;;;5095161;28;19928;-82
2023/06/13 06:19:09;;;;;;;;;;;21.60;83.90;;;;;;5090415;28;19928;-84
2023/06/13 06:21:34;;;;;;;;;;;21.80;82.10;;;;;;5094345;28;19935;-83
2023/06/13 06:24:00;;;;;;;;;;;21.90;81.40;;;;;;5095903;28;19939;-83
2023/06/13 06:26:26;;;;;;;;;;;22.50;84.10;;;;;;5097551;28;20376;-84
2023/06/13 06:28:52;;;;;;;;;;;22.80;83.30;;;;;;5098406;28;19928;-85
2023/06/13 06:31:17;;;;;;;;;;;22.70;81.40;;;;;;5095073;28;20422;-82
2023/06/13 06:33:43;;;;;;;;;;;21.90;78.80;;;;;;5093890;28;19930;-82
2023/06/13 06:36:08;;;;;;;;;;;21.60;81.20;;;;;;5097096;28;20034;-85
2023/06/13 06:38:34;;;;;;;;;;;21.50;81.70;;;;;;5093051;28;19928;-84
2023/06/13 06:40:59;;;;;;;;;;;22.20;81.20;;;;;;5096397;28;20019;-81
2023/06/13 06:43:25;;;;;;;;;;;21.70;81.60;;;;;;5095936;28;19963;-83
2023/06/13 06:45:51;;;;;;;;;;;22.40;82.20;;;;;;5091588;28;19928;-84
2023/06/13 06:48:16;;;;;;;;;;;22.70;81.60;;;;;;5090266;28;19932;-82
2023/06/13 06:50:42;;;;;;;;;;;23.10;82.30;;;;;;5095756;28;20002;-84
2023/06/13 06:53:08;;;;;;;;;;;23.70;80.20;;;;;;5097356;28;19927;-83
2023/06/13 06:55:33;;;;;;;;;;;23.20;80.90;;;;;;5089420;28;19931;-84
2023/06/13 06:57:59;;;;;;;;;;;23.10;79.50;;;;;;5097542;28;19972;-83
2023/06/13 07:00:24;;;;;;;;;;;22.40;80.30;;;;;;5096391;28;20610;-82
2023/06/13 07:02:51;;;;;;;;;;;22.40;80.10;;;;;;5091926;28;19928;-83
2023/06/13 07:05:16;;;;;;;;;;;22.80;81.90;;;;;;5079234;28;19923;-83
2023/06/13 07:07:44;;;;;;;;;;;22.20;81.20;;;;;;5098544;28;20343;-83
2023/06/13 07:10:10;;;;;;;;;;;22.50;79.70;;;;;;5095104;28;19981;-82
2023/06/13 07:12:36;;;;;;;;;;;23.00;78.20;;;;;;5090485;28;19938;-85
2023/06/13 07:15:02;;;;;;;;;;;23.30;81.80;;;;;;5093280;28;20031;-84
2023/06/13 07:17:28;;;;;;;;;;;22.70;77.20;;;;;;5092428;28;20014;-85
2023/06/13 07:19:54;;;;;;;;;;;23.50;82.50;;;;;;5090107;28;20312;-85
2023/06/13 07:22:19;;;;;;;;;;;23.80;82.50;;;;;;5091115;28;19934;-83
2023/06/13 07:24:45;;;;;;;;;;;24.10;81.50;;;;;;5089505;28;19932;-82
2023/06/13 07:27:11;;;;;;;;;;;24.00;79.80;;;;;;5095122;28;20019;-84
2023/06/13 07:29:36;;;;;;;;;;;23.90;79.50;;;;;;5091024;28;19963;-83
2023/06/13 07:32:02;;;;;;;;;;;23.90;78.60;;;;;;5097246;28;19935;-83
2023/06/13 07:34:27;;;;;;;;;;;24.00;78.70;;;;;;5096237;28;19974;-84
2023/06/13 07:36:54;;;;;;;;;;;24.40;79.60;;;;;;5093289;28;19928;-84
2023/06/13 07:39:20;;;;;;;;;;;24.40;81.40;;;;;;5088642;28;19929;-85
2023/06/13 07:41:46;;;;;;;;;;;24.30;80.20;;;;;;5093266;28;20011;-83
2023/06/13 07:44:12;;;;;;;;;;;23.30;75.30;;;;;;5090848;28;19972;-83
2023/06/13 07:46:38;;;;;;;;;;;23.70;78.50;;;;;;5094748;28;19970;-84
2023/06/13 07:49:03;;;;;;;;;;;24.10;79.90;;;;;;5098079;28;19936;-83
2023/06/13 07:51:29;;;;;;;;;;;24.60;78.00;;;;;;5093961;28;20384;-84
2023/06/13 07:53:54;;;;;;;;;;;24.90;78.10;;;;;;5088199;28;20569;-85
2023/06/13 07:56:20;;;;;;;;;;;24.80;76.30;;;;;;5099956;28;19927;-85
2023/06/13 07:58:46;;;;;;;;;;;24.70;78.80;;;;;;5092418;28;19924;-84
2023/06/13 08:01:11;;;;;;;;;;;24.60;79.20;;;;;;5094474;28;20527;-84
2023/06/13 08:03:37;;;;;;;;;;;25.00;79.00;;;;;;5090384;28;20309;-85
2023/06/13 08:06:02;;;;;;;;;;;25.60;80.00;;;;;;5088717;28;19928;-83
2023/06/13 08:08:28;;;;;;;;;;;25.50;77.70;;;;;;5078523;28;20121;-82
2023/06/13 08:10:53;;;;;;;;;;;25.40;77.80;;;;;;5089631;28;19939;-84
2023/06/13 08:13:19;;;;;;;;;;;25.60;79.00;;;;;;5098668;28;21379;-84
2023/06/13 08:15:45;;;;;;;;;;;25.40;80.10;;;;;;5099494;28;19992;-84
2023/06/13 08:18:10;;;;;;;;;;;25.40;76.30;;;;;;5099596;28;19924;-84
2023/06/13 08:20:37;;;;;;;;;;;25.60;79.70;;;;;;5093587;28;19928;-84
2023/06/13 08:23:03;;;;;;;;;;;25.30;78.00;;;;;;5101841;28;20016;-84
2023/06/13 08:25:28;;;;;;;;;;;25.40;78.70;;;;;;5093653;28;19932;-83
2023/06/13 08:27:55;;;;;;;;;;;25.40;74.50;;;;;;5094747;28;19993;-84
2023/06/13 08:30:21;;;;;;;;;;;25.60;78.60;;;;;;5098746;28;19931;-85
2023/06/13 08:32:47;;;;;;;;;;;25.90;80.30;;;;;;5100528;28;20269;-84
2023/06/13 08:35:13;;;;;;;;;;;25.40;80.00;;;;;;5100424;28;19927;-83
2023/06/13 08:37:39;;;;;;;;;;;25.70;79.90;;;;;;5101228;28;19935;-82
2023/06/13 08:40:06;;;;;;;;;;;25.50;76.30;;;;;;5098135;28;19943;-85
2023/06/13 08:42:32;;;;;;;;;;;25.20;75.30;;;;;;5097873;28;19932;-85
2023/06/13 08:44:58;;;;;;;;;;;25.50;77.60;;;;;;5093926;28;19986;-81
2023/06/13 08:47:24;;;;;;;;;;;25.00;76.00;;;;;;5094756;28;19928;-85
2023/06/13 08:49:50;;;;;;;;;;;25.00;77.20;;;;;;5097004;28;19923;-86
2023/06/13 08:52:17;;;;;;;;;;;25.50;74.60;;;;;;5089562;28;19935;-85
2023/06/13 08:54:43;;;;;;;;;;;26.00;76.80;;;;;;5083083;28;19931;-85
2023/06/13 08:57:12;;;;;;;;;;;26.40;76.50;;;;;;5100597;28;20533;-85
2023/06/13 08:59:38;;;;;;;;;;;26.20;75.80;;;;;;5080892;28;19939;-87
2023/06/13 09:02:04;;;;;;;;;;;26.00;73.40;;;;;;5100389;28;19928;-84
2023/06/13 09:04:35;;;;;;;;;;;26.70;78.30;;;;;;5098379;28;19928;-87
2023/06/13 09:07:01;;;;;;;;;;;26.80;77.10;;;;;;5101485;28;19928;-84
2023/06/13 09:09:27;;;;;;;;;;;26.50;77.40;;;;;;5096124;28;19935;-86
2023/06/13 09:11:53;;;;;;;;;;;27.00;77.90;;;;;;5099476;28;20321;-85
2023/06/13 09:14:19;;;;;;;;;;;26.90;73.40;;;;;;5100028;28;20661;-84
2023/06/13 09:16:45;;;;;;;;;;;27.10;74.60;;;;;;5104376;28;19927;-85
2023/06/13 09:19:12;;;;;;;;;;;27.10;74.30;;;;;;5099584;28;19935;-86
2023/06/13 09:21:38;;;;;;;;;;;26.30;71.20;;;;;;5101908;28;19923;-83
2023/06/13 09:24:05;;;;;;;;;;;26.90;75.40;;;;;;5103640;28;19944;-84
2023/06/13 09:26:31;;;;;;;;;;;26.80;74.30;;;;;;5095765;28;19954;-85
2023/06/13 09:28:57;;;;;;;;;;;27.20;71.70;;;;;;5103656;28;20510;-85
2023/06/13 09:31:22;;;;;;;;;;;26.90;70.30;;;;;;5098483;28;19935;-86
2023/06/13 09:33:48;;;;;;;;;;;27.70;74.20;;;;;;5100414;28;20340;-82
2023/06/13 09:36:21;;;;;;;;;;;27.10;70.30;;;;;;5098875;28;20312;-84
2023/06/13 09:38:48;;;;;;;;;;;27.00;69.10;;;;;;5094448;28;19923;-84
2023/06/13 09:41:14;;;;;;;;;;;27.70;71.20;;;;;;5100403;28;19928;-84
2023/06/13 09:43:40;;;;;;;;;;;26.10;68.00;;;;;;5090487;28;19924;-85
2023/06/13 09:46:08;;;;;;;;;;;27.20;72.90;;;;;;5088313;28;20061;-85
2023/06/13 09:48:33;;;;;;;;;;;27.70;70.90;;;;;;5084203;28;19954;-80
2023/06/13 09:50:59;;;;;;;;;;;27.70;70.20;;;;;;5086677;28;20818;-86
2023/06/13 09:53:25;;;;;;;;;;;27.70;70.30;;;;;;5094543;28;19943;-85
2023/06/13 09:55:51;;;;;;;;;;;27.90;70.60;;;;;;5094192;28;20300;-85
2023/06/13 09:58:17;;;;;;;;;;;27.80;71.60;;;;;;5093265;28;19928;-86
2023/06/13 10:00:42;;;;;;;;;;;27.40;68.90;;;;;;5090889;28;20010;-86
2023/06/13 10:03:08;;;;;;;;;;;27.60;69.30;;;;;;5083461;28;19924;-85
2023/06/13 10:05:33;;;;;;;;;;;28.30;71.30;;;;;;5097465;28;19928;-83
2023/06/13 10:07:59;;;;;;;;;;;28.30;72.60;;;;;;5089934;27;19971;-84
2023/06/13 10:10:25;;;;;;;;;;;27.90;69.40;;;;;;5097986;28;19924;-87
2023/06/13 10:12:53;;;;;;;;;;;27.90;69.10;;;;;;5097772;28;19981;-85
2023/06/13 10:15:39;;;;;;;;;;;28.50;72.70;;;;;;5093379;28;20015;-82
2023/06/13 10:18:10;;;;;;;;;;;27.30;67.30;;;;;;5095506;28;20424;-83
2023/06/13 10:20:37;;;;;;;;;;;27.70;70.00;;;;;;5083507;28;19924;-84
2023/06/13 10:23:04;;;;;;;;;;;26.80;67.90;;;;;;5075230;28;19939;-86
2023/06/13 10:25:30;;;;;;;;;;;27.80;70.30;;;;;;5082558;28;20043;-83
2023/06/13 10:27:58;;;;;;;;;;;28.10;67.80;;;;;;5092047;28;20014;-85
2023/06/13 10:30:28;;;;;;;;;;;27.90;66.20;;;;;;5094453;28;19928;-84
2023/06/13 10:33:17;;;;;;;;;;;28.10;67.30;;;;;;5096973;28;19938;-86
2023/06/13 10:35:55;;;;;;;;;;;28.20;67.10;;;;;;5073888;28;19928;-83
2023/06/13 10:38:33;;;;;;;;;;;27.90;64.90;;;;;;5098033;28;19979;-81
2023/06/13 10:41:05;;;;;;;;;;;27.50;60.20;;;;;;5085059;28;19928;-82
2023/06/13 10:43:46;;;;;;;;;;;27.30;61.00;;;;;;5082347;28;19928;-85
2023/06/13 10:46:13;;;;;;;;;;;28.20;64.10;;;;;;5086882;28;19939;-82
2023/06/13 10:48:42;;;;;;;;;;;28.80;64.30;;;;;;5093339;28;19924;-84
2023/06/13 10:51:09;;;;;;;;;;;28.20;64.80;;;;;;5086913;28;19959;-83
2023/06/13 10:53:37;;;;;;;;;;;27.40;63.30;;;;;;5081356;28;20408;-85
2023/06/13 10:56:04;;;;;;;;;;;28.00;64.00;;;;;;5067270;28;20029;-86
2023/06/13 10:58:30;;;;;;;;;;;28.30;64.10;;;;;;5092272;28;19924;-83
2023/06/13 11:00:56;;;;;;;;;;;28.40;64.70;;;;;;5086648;28;19931;-84
2023/06/13 11:03:28;;;;;;;;;;;28.20;62.00;;;;;;5099983;28;20008;-84
2023/06/13 11:05:54;;;;;;;;;;;29.30;66.30;;;;;;5095699;28;19939;-84
2023/06/13 11:08:20;;;;;;;;;;;28.40;63.80;;;;;;5101286;28;19928;-82
2023/06/13 11:10:47;;;;;;;;;;;27.90;62.00;;;;;;5096317;28;19928;-85
2023/06/13 11:13:18;;;;;;;;;;;28.50;63.60;;;;;;5092440;28;20377;-85
2023/06/13 11:15:43;;;;;;;;;;;28.60;62.10;;;;;;5095383;28;20160;-85
2023/06/13 11:18:09;;;;;;;;;;;28.10;61.20;;;;;;5092046;28;20395;-82
2023/06/13 11:20:46;;;;;;;;;;;27.60;59.30;;;;;;5091200;28;21849;-85
2023/06/13 11:23:12;;;;;;;;;;;27.40;59.30;;;;;;5093868;28;19924;-85
2023/06/13 11:25:38;;;;;;;;;;;28.50;64.70;;;;;;5089069;28;20623;-83
2023/06/13 11:28:04;;;;;;;;;;;28.30;60.50;;;;;;5092466;28;19976;-87
2023/06/13 11:30:30;;;;;;;;;;;28.20;62.20;;;;;;5095137;28;19928;-85
2023/06/13 11:32:56;;;;;;;;;;;29.00;62.90;;;;;;5092968;28;19928;-86
2023/06/13 11:35:23;;;;;;;;;;;28.50;61.90;;;;;;5094735;28;20439;-83
2023/06/13 11:37:56;;;;;;;;;;;28.80;58.70;;;;;;5095375;28;19927;-84
2023/06/13 11:40:32;;;;;;;;;;;27.80;60.40;;;;;;5088598;28;20469;-84
2023/06/13 11:42:58;;;;;;;;;;;28.30;63.20;;;;;;5090873;28;19928;-84
2023/06/13 11:45:23;;;;;;;;;;;28.60;62.30;;;;;;5079604;28;19928;-85
2023/06/13 11:47:56;;;;;;;;;;;28.70;61.30;;;;;;5097377;28;20256;-88
2023/06/13 11:50:25;;;;;;;;;;;28.20;63.30;;;;;;5091265;28;19928;-84
2023/06/13 11:53:03;;;;;;;;;;;28.10;61.90;;;;;;5087974;28;19971;-88
2023/06/13 11:55:32;;;;;;;;;;;29.20;62.70;;;;;;5078535;28;20014;-86
2023/06/13 11:57:57;;;;;;;;;;;29.40;62.60;;;;;;5097536;28;20606;-86
2023/06/13 12:00:27;;;;;;;;;;;28.60;60.60;;;;;;5097237;28;19930;-84
2023/06/13 12:02:53;;;;;;;;;;;28.30;61.30;;;;;;5091609;28;19974;-87
2023/06/13 12:05:19;;;;;;;;;;;28.40;62.50;;;;;;5098290;28;20675;-85
2023/06/13 12:07:45;;;;;;;;;;;28.40;60.60;;;;;;5077777;28;20006;-84
2023/06/13 12:10:12;;;;;;;;;;;28.80;59.50;;;;;;5089197;28;19930;-85
2023/06/13 12:12:37;;;;;;;;;;;29.60;64.80;;;;;;5084898;28;19936;-84
2023/06/13 12:15:03;;;;;;;;;;;29.20;58.90;;;;;;5094728;28;20300;-84
2023/06/13 12:17:29;;;;;;;;;;;28.60;60.00;;;;;;5095784;28;20289;-82
2023/06/13 12:20:11;;;;;;;;;;;28.70;60.20;;;;;;5088520;28;19939;-84
2023/06/13 12:22:37;;;;;;;;;;;28.20;60.90;;;;;;5091609;28;19928;-84
2023/06/13 12:25:04;;;;;;;;;;;27.90;61.80;;;;;;5092468;28;19939;-86
2023/06/13 12:27:31;;;;;;;;;;;28.40;56.80;;;;;;5076257;28;19935;-86
2023/06/13 12:30:07;;;;;;;;;;;29.10;62.80;;;;;;5103407;28;20266;-86
2023/06/13 12:32:37;;;;;;;;;;;28.70;57.60;;;;;;5089319;28;19939;-83
2023/06/13 12:35:03;;;;;;;;;;;27.90;57.80;;;;;;5077910;28;19932;-84
2023/06/13 12:37:34;;;;;;;;;;;28.70;60.50;;;;;;5099262;28;20381;-85
2023/06/13 12:40:03;;;;;;;;;;;28.80;59.50;;;;;;5094282;28;19928;-85
2023/06/13 12:42:29;;;;;;;;;;;29.40;58.40;;;;;;5095388;28;19924;-85
2023/06/13 12:44:56;;;;;;;;;;;30.30;63.60;;;;;;5103361;28;20484;-86
2023/06/13 12:47:21;;;;;;;;;;;29.80;58.40;;;;;;5098962;28;19932;-87
2023/06/13 12:49:47;;;;;;;;;;;29.50;54.90;;;;;;5093153;28;20031;-86
2023/06/13 12:52:15;;;;;;;;;;;29.40;59.90;;;;;;5095400;28;20024;-86
2023/06/13 12:54:41;;;;;;;;;;;29.10;56.80;;;;;;5094167;28;19959;-85
2023/06/13 12:57:08;;;;;;;;;;;28.70;55.50;;;;;;5100669;28;20392;-87
2023/06/13 12:59:35;;;;;;;;;;;29.40;58.80;;;;;;5100932;28;19932;-85
2023/06/13 13:02:07;;;;;;;;;;;29.80;58.70;;;;;;5083335;28;19928;-86
2023/06/13 13:04:34;;;;;;;;;;;29.50;55.50;;;;;;5101393;28;19932;-86
2023/06/13 13:06:59;;;;;;;;;;;28.90;55.30;;;;;;5095423;28;19938;-87
2023/06/13 13:09:26;;;;;;;;;;;29.00;58.10;;;;;;5094533;28;19928;-86
2023/06/13 13:11:55;;;;;;;;;;;29.90;61.60;;;;;;5078328;28;19927;-87
2023/06/13 13:14:27;;;;;;;;;;;29.90;60.50;;;;;;5090758;28;19924;-85
2023/06/13 13:16:53;;;;;;;;;;;28.70;55.40;;;;;;5093354;28;19938;-86
2023/06/13 13:19:19;;;;;;;;;;;29.00;57.40;;;;;;5098085;28;20384;-85
2023/06/13 13:21:45;;;;;;;;;;;29.10;58.50;;;;;;5100146;28;19928;-85
2023/06/13 13:24:10;;;;;;;;;;;29.10;56.80;;;;;;5098422;28;19955;-87
2023/06/13 13:26:36;;;;;;;;;;;29.30;59.10;;;;;;5096949;28;19928;-84
2023/06/13 13:29:02;;;;;;;;;;;29.40;55.40;;;;;;5097418;28;20035;-85
2023/06/13 13:31:28;;;;;;;;;;;29.20;57.40;;;;;;5099632;28;19977;-86
2023/06/13 13:33:53;;;;;;;;;;;29.50;55.90;;;;;;5099544;28;20579;-85
2023/06/13 13:36:19;;;;;;;;;;;29.50;59.10;;;;;;5099891;28;19924;-84
2023/06/13 13:38:44;;;;;;;;;;;29.80;55.70;;;;;;5099565;28;19967;-83
2023/06/13 13:41:10;;;;;;;;;;;29.60;56.20;;;;;;5091692;28;20009;-87
2023/06/13 13:43:36;;;;;;;;;;;28.70;57.90;;;;;;5081002;28;20358;-83
2023/06/13 13:46:01;;;;;;;;;;;28.80;57.10;;;;;;5089135;28;19938;-85
2023/06/13 13:48:27;;;;;;;;;;;29.00;58.10;;;;;;5093316;28;20019;-86
2023/06/13 13:50:53;;;;;;;;;;;29.10;57.70;;;;;;5096029;28;19943;-85
2023/06/13 13:53:18;;;;;;;;;;;28.20;53.30;;;;;;5094505;28;19950;-85
2023/06/13 13:55:44;;;;;;;;;;;29.30;57.80;;;;;;5097107;28;19932;-82
2023/06/13 13:58:10;;;;;;;;;;;29.10;56.90;;;;;;5098801;28;19928;-82
2023/06/13 14:00:37;;;;;;;;;;;29.10;58.90;;;;;;5099619;28;20006;-87
2023/06/13 14:03:03;;;;;;;;;;;29.10;59.40;;;;;;5090647;28;19977;-82
2023/06/13 14:05:29;;;;;;;;;;;28.80;57.60;;;;;;5090759;28;19923;-86
2023/06/13 14:07:54;;;;;;;;;;;28.80;57.20;;;;;;5093683;28;19998;-84
2023/06/13 14:10:20;;;;;;;;;;;28.20;54.20;;;;;;5098522;28;19951;-84
2023/06/13 14:12:46;;;;;;;;;;;28.50;57.80;;;;;;5089926;28;20430;-84
2023/06/13 14:15:11;;;;;;;;;;;28.30;54.60;;;;;;5095315;28;20004;-84